Latest Coastal Weather Observations for Cocos Island

IDW60701

Issued at 3:33 pm WST Thursday 23 November 2017 (issued every 10 minutes, with the page automatically refreshed every 10 minutes)

About coastal observations | Map of coastal stations | Coastal observations for WA | Marine services | Other Formats
Station Details ID: 200284 Name: COCOS ISLAND AIRPORT Lat: -12.19 Lon: 96.83 Height: 3.0 m
Data from the previous 72 hours. | See also: Recent months at Cocos Island
Date/Time
WST
Temp
°C
Wind Pressure Rain since
9am
mm
Weather Cloud Vis
km
Sea
Height
m
Swell
Dir  Spd
kts
Gust
kts
hPa Trend Height
m
Period
s
Dir
23/03:00pm 28.1 SE 13 18 1009.0 - 0.0 - Partly cloudy 10 - - - -
23/02:30pm 28.8 SE 13 17 1009.3 - 0.0 - Mostly clear 10 - - - -
23/02:00pm 28.8 SE 14 17 1009.4 - 0.0 - Mostly clear 10 - - - -
23/01:30pm 28.8 ESE 14 17 1009.9 - 0.0 - Mostly clear 10 - - - -
23/01:00pm 28.4 SE 14 18 1010.1 - 0.0 - Partly cloudy 10 - - - -
23/12:30pm 28.8 SE 13 16 1010.2 - 0.0 - Mostly clear 10 - - - -
23/12:00pm 28.0 SE 13 16 1010.2 - 0.0 - Mostly clear 10 - - - -
23/11:30am 28.0 SE 15 18 1010.5 - 0.0 - Mostly clear 10 - - - -
23/11:00am 27.8 SE 14 19 1010.5 - 0.0 - Partly cloudy 10 - - - -
23/10:30am 27.5 SE 15 19 1010.7 - 0.0 - Mostly clear 10 - - - -
23/10:00am 27.6 SE 15 19 1010.6 - 0.0 - Mostly clear 10 - - - -
23/09:30am 26.6 SE 15 19 1010.5 - 0.0 - Mostly clear 10 - - - -
23/09:00am 26.5 SE 15 20 1010.3 - 0.0 - Mostly clear 10 - - - -
23/08:30am 26.5 SE 16 19 1010.2 - 0.0 - Partly cloudy 10 - - - -
23/08:13am 26.5 SE 16 21 1010.0 - 0.0 - Partly cloudy 10 - - - -
23/08:00am 26.1 SE 16 21 1009.7 - 0.0 - Mostly clear 5 - - - -
23/07:56am 26.1 SE 16 21 1009.8 - 0.0 - Partly cloudy 5 - - - -
23/07:30am 26.0 SE 14 19 1009.4 - 0.0 - Partly cloudy 10 - - - -
23/07:00am 26.1 SSE 14 19 1009.0 - 0.0 - Partly cloudy 10 - - - -
23/06:30am 26.0 SE 14 19 1008.8 - 0.0 - Partly cloudy 10 - - - -
23/06:00am 26.1 SE 15 19 1008.7 - 0.0 - Cloudy 10 - - - -
23/05:30am 26.2 SE 15 20 1008.5 - 0.0 - Partly cloudy 10 - - - -
23/05:00am 26.1 SE 15 19 1008.4 - 0.0 - Cloudy 10 - - - -
23/04:30am 26.0 SE 15 20 1008.7 - 0.0 - Partly cloudy 10 - - - -
23/04:00am 26.0 SE 16 20 1008.5 - 0.0 - Partly cloudy 10 - - - -
23/03:30am 26.1 SE 16 20 1008.8 - 0.0 - Partly cloudy 10 - - - -
23/03:00am 25.9 SE 14 19 1009.2 - 0.0 - Partly cloudy 10 - - - -
23/02:30am 25.5 SE 13 18 1009.6 - 0.0 - Partly cloudy 10 - - - -
23/02:00am 26.3 SE 17 22 1009.7 - 0.0 - Cloudy 10 - - - -
23/01:30am 26.3 SSE 13 17 1010.0 - 0.0 - Partly cloudy 10 - - - -
23/01:00am 26.7 SE 16 20 1010.2 - 0.0 - Partly cloudy 10 - - - -
23/12:30am 26.5 SE 17 22 1010.6 - 0.0 - Partly cloudy 10 - - - -
23/12:00am 26.8 SE 17 21 1010.6 - 0.0 - Partly cloudy 10 - - - -
 
Date/Time
WST
Temp
°C
Wind Pressure Rain since
9am
mm
Weather Cloud Vis
km
Sea
Height
m
Swell
Dir  Spd
kts
Gust
kts
hPa Trend Height
m
Period
s
Dir
22/11:30pm 26.7 SE 17 21 1010.6 - 0.0 - Partly cloudy 10 - - - -
22/11:00pm 26.8 SE 17 23 1010.4 - 0.0 - Partly cloudy 10 - - - -
22/10:30pm 26.8 SE 16 21 1010.3 - 0.0 - Partly cloudy 10 - - - -
22/10:00pm 26.9 SE 17 23 1010.0 - 0.0 - Partly cloudy 10 - - - -
22/09:30pm 26.9 SE 16 22 1009.7 - 0.0 - Partly cloudy 10 - - - -
22/09:00pm 26.9 SE 15 19 1009.5 - 0.0 - Partly cloudy 10 - - - -
22/08:30pm 26.8 SSE 14 19 1009.2 - 0.0 - Partly cloudy 10 - - - -
22/08:00pm 26.9 SE 15 20 1008.7 - 0.0 - Cloudy 10 - - - -
22/07:30pm 27.0 SE 15 19 1008.5 - 0.0 - Partly cloudy 10 - - - -
22/07:00pm 27.3 SSE 15 21 1008.3 - 0.0 - Partly cloudy 10 - - - -
22/06:30pm 27.4 SSE 15 18 1008.0 - 0.0 - Partly cloudy 10 - - - -
22/06:00pm 27.5 SSE 13 19 1007.7 - 0.0 - Partly cloudy 10 - - - -
22/05:30pm 27.8 SSE 15 20 1007.6 - 0.0 - Partly cloudy 10 - - - -
22/05:00pm 28.4 SSE 15 21 1007.5 - 0.0 - Mostly cloudy 10 - - - -
22/04:30pm 28.5 SE 15 19 1007.8 - 0.0 - Mostly clear 10 - - - -
22/04:00pm 28.3 SE 15 19 1008.0 - 0.0 - Mostly clear 10 - - - -
22/03:30pm 28.2 SE 15 20 1008.3 - 0.0 - Mostly clear 10 - - - -
22/03:00pm 28.0 SE 14 19 1008.6 - 0.0 - Partly cloudy 10 - - - -
22/02:30pm 29.0 SE 15 19 1008.9 - 0.0 - Mostly clear 10 - - - -
22/02:00pm 29.0 SE 16 21 1009.1 - 0.0 - Cloudy 10 - - - -
22/01:30pm 28.8 SE 15 20 1009.4 - 0.0 - Mostly clear 10 - - - -
22/01:00pm 28.2 SE 16 20 1009.7 - 0.0 - Mostly clear 10 - - - -
22/12:30pm 28.3 SE 16 21 1010.0 - 0.0 - Mostly clear 10 - - - -
22/12:00pm 27.9 SE 17 23 1010.2 - 0.0 - Mostly clear 10 - - - -
22/11:30am 28.4 SE 17 22 1010.4 - 0.0 - Mostly clear 10 - - - -
22/11:00am 27.7 SE 16 21 1010.4 - 1.8 - Mostly clear 10 - - - -
22/10:30am 27.6 ESE 16 20 1010.6 - 1.8 - Mostly clear 10 - - - -
22/10:00am 27.4 SE 14 18 1010.6 - 1.8 - Mostly clear 10 - - - -
22/09:30am 27.1 SE 16 21 1010.5 - 1.8 - Mostly clear 10 - - - -
22/09:00am 26.6 SE 17 21 1010.3 - 1.8 - Mostly clear 10 - - - -
22/08:30am 26.6 SE 15 20 1010.2 - 1.8 - Mostly clear 10 - - - -
22/08:00am 25.8 ESE 15 18 1009.9 - 1.8 - Cloudy 10 - - - -
22/07:30am 26.1 SE 15 18 1009.6 - 1.8 - Partly cloudy 10 - - - -
22/07:00am 25.8 SE 14 18 1009.4 - 1.8 - Partly cloudy 10 - - - -
22/06:30am 25.6 SE 14 21 1009.1 - 1.8 - Partly cloudy 10 - - - -
22/06:00am 25.4 SE 15 17 1009.0 - 1.8 - Cloudy 10 - - - -
22/05:56am 25.4 SE 14 17 1009.0 - 1.8 - Cloudy 10 - - - -
22/05:33am 25.0 SE 12 15 1009.0 - 1.8 - Partly cloudy 4 - - - -
22/05:30am 25.0 SE 12 15 1009.0 - 1.8 - Partly cloudy 10 - - - -
22/05:00am 24.6 ESE 13 18 1008.9 - 1.8 - Cloudy 10 - - - -
22/04:30am 24.9 E 11 17 1009.0 - 1.8 - Partly cloudy 10 - - - -
22/04:00am 25.0 E 10 14 1009.1 - 1.8 - Partly cloudy 10 - - - -
22/03:56am 25.2 ESE 10 16 1009.2 - 1.8 - Partly cloudy 10 - - - -
22/03:39am 25.2 ESE 15 19 1009.4 - 1.8 - Partly cloudy 6 - - - -
22/03:30am 26.0 ESE 14 18 1009.4 - 1.6 - Partly cloudy 10 - - - -
22/03:00am 25.8 SSE 11 15 1009.7 - 1.6 - Partly cloudy 10 - - - -
22/02:30am 26.1 SE 14 18 1010.1 - 1.6 - Partly cloudy 10 - - - -
22/02:13am 26.1 SE 14 19 1010.2 - 1.6 - Partly cloudy 10 - - - -
22/02:00am 25.4 ESE 10 16 1010.3 - 1.6 - Cloudy 6 - - - -
22/01:30am 26.3 ESE 14 17 1010.6 - 1.4 - Partly cloudy 10 - - - -
22/01:00am 26.3 ESE 15 18 1010.8 - 1.4 - - 10 - - - -
22/12:30am 26.4 ESE 14 18 1011.1 - 1.4 - Partly cloudy 10 - - - -
22/12:00am 26.5 ESE 14 20 1011.2 - 1.4 - Partly cloudy 10 - - - -
 
Date/Time
WST
Temp
°C
Wind Pressure Rain since
9am
mm
Weather Cloud Vis
km
Sea
Height
m
Swell
Dir  Spd
kts
Gust
kts
hPa Trend Height
m
Period
s
Dir
21/11:30pm 26.5 ESE 15 19 1011.2 - 1.4 - - 10 - - - -
21/11:00pm 26.5 ESE 14 19 1011.0 - 1.4 - Mostly clear 10 - - - -
21/10:30pm 26.6 SE 16 21 1011.0 - 1.4 - Partly cloudy 10 - - - -
21/10:00pm 26.6 ESE 16 20 1010.7 - 1.4 - - 10 - - - -
21/09:30pm 26.6 ESE 17 21 1010.5 - 1.4 - Partly cloudy 10 - - - -
21/09:00pm 26.6 ESE 16 20 1010.2 - 1.4 - Partly cloudy 10 - - - -
21/08:30pm 26.7 ESE 17 21 1010.0 - 1.4 - - 10 - - - -
21/08:00pm 26.6 SE 17 21 1009.7 - 1.4 - Mostly clear 10 - - - -
21/07:30pm 26.8 ESE 16 21 1009.4 - 1.4 - Partly cloudy 10 - - - -
21/07:10pm 26.8 SE 16 21 1009.1 - 1.4 - - - - - - -
21/07:00pm 26.9 SE 16 20 1009.0 - 1.4 - Partly cloudy 0 - - - -
21/06:52pm 26.7 SE 17 21 1009.0 - 1.4 - Partly cloudy 0.5 - - - -
21/06:30pm 26.9 SE 14 19 1008.9 - 1.4 - Partly cloudy 10 - - - -
21/06:00pm 26.4 SE 12 18 1008.8 - 1.4 - Partly cloudy 10 - - - -
21/05:30pm 26.6 ESE 14 19 1008.7 - 1.4 - Partly cloudy 10 - - - -
21/05:00pm 27.0 ESE 9 14 1008.6 - 1.4 - Cloudy 10 - - - -
21/04:30pm 25.3 NE 8 12 1009.0 - 1.4 - Mostly clear 10 - - - -
21/04:16pm 24.9 NE 9 13 1009.1 - 1.4 - Mostly clear 10 - - - -
21/04:00pm 24.6 ENE 8 13 1009.3 - 1.4 Showers Mostly clear 6 - - - -
21/03:53pm 25.1 ENE 9 14 1009.3 - 0.8 Showers Mostly clear 3 - - - -
21/03:30pm 25.6 NE 10 13 1009.5 - 0.2 Showers Mostly clear 8 - - - -
21/03:00pm 27.5 ENE 12 17 1009.9 - 0.2 - Mostly clear 10 - - - -
21/02:30pm 27.3 E 9 13 1010.2 - 0.0 - Mostly clear 10 - - - -
21/02:00pm 25.3 ESE 14 19 1010.7 - 0.0 - Cloudy 8 - - - -
21/01:30pm 26.2 E 12 15 1010.9 - 0.0 - Cloudy 10 - - - -
21/01:08pm 25.2 E 14 19 1011.2 - 0.0 - Partly cloudy 10 - - - -
21/01:00pm 24.9 E 16 20 1011.4 - 0.0 Showers Mostly clear 10 - - - -
21/12:43pm 25.2 E 13 21 1011.6 - 0.0 Showers Mostly clear 4 - - - -
21/12:30pm 26.5 E 8 9 1011.8 - 0.0 - Mostly clear 10 - - - -
21/12:00pm 25.1 E 12 17 1011.9 - 0.0 Rain Mostly clear 10 - - - -
21/11:39am 25.4 E 15 20 1012.0 - 0.0 Rain Mostly clear 4 - - - -
21/11:30am 26.2 E 15 21 1011.9 - 0.0 Showers Mostly clear 8 - - - -
21/11:00am 27.5 ESE 10 14 1012.0 - 0.0 - Cloudy 10 - - - -
21/10:30am 25.1 ESE 18 23 1012.2 - 0.0 - Mostly clear 10 - - - -
21/10:00am 27.4 ESE 11 16 1012.1 - 0.0 - Mostly clear 10 - - - -
21/09:30am 26.5 ESE 14 18 1011.9 - 0.0 - Mostly clear 10 - - - -
21/09:00am 26.4 ESE 15 21 1011.8 - 0.0 - Mostly clear 10 - - - -
21/08:30am 25.8 E 13 20 1011.7 - 0.0 - Mostly clear 10 - - - -
21/08:00am 26.1 ESE 13 20 1011.2 - 0.0 - Cloudy 10 - - - -
21/07:54am 26.7 ESE 13 19 1011.2 - 0.0 - Partly cloudy 10 - - - -
21/07:35am 26.3 ESE 14 20 1011.0 - 0.0 - Partly cloudy 5 - - - -
21/07:30am 26.3 ESE 13 18 1011.0 - 0.0 - Partly cloudy 10 - - - -
21/07:00am 26.3 ESE 13 19 1010.8 - 0.0 - Partly cloudy 10 - - - -
21/06:30am 26.3 SE 15 18 1010.4 - 0.0 - Cloudy 10 - - - -
21/06:00am 26.4 SE 15 17 1010.3 - 0.0 - Cloudy 10 - - - -
21/05:30am 26.2 SE 13 17 1010.2 - 0.0 - Partly cloudy 10 - - - -
21/05:00am 26.1 SE 14 18 1010.0 - 0.0 - Mostly clear 10 - - - -
21/04:30am 25.9 SE 14 20 1009.9 - 0.0 - - 10 - - - -
21/04:00am 26.1 SE 15 20 1010.0 - 0.0 - Partly cloudy 10 - - - -
21/03:30am 26.1 SE 16 22 1010.2 - 0.0 - - 10 - - - -
21/03:00am 26.2 SE 16 20 1010.4 - 0.0 - - 10 - - - -
21/02:30am 26.1 SE 15 21 1010.8 - 0.0 - - 10 - - - -
21/02:00am 26.2 SE 14 19 1011.0 - 0.0 - Partly cloudy 10 - - - -
21/01:30am 26.6 SE 16 19 1011.4 - 0.0 - Partly cloudy 10 - - - -
21/01:00am 26.5 ESE 14 18 1011.7 - 0.0 - Partly cloudy 10 - - - -
21/12:30am 26.4 SE 14 19 1012.0 - 0.0 - Partly cloudy 10 - - - -
21/12:00am 27.0 ESE 14 17 1012.2 - 0.0 - Partly cloudy 10 - - - -
 
Date/Time
WST
Temp
°C
Wind Pressure Rain since
9am
mm
Weather Cloud Vis
km
Sea
Height
m
Swell
Dir  Spd
kts
Gust
kts
hPa Trend Height
m
Period
s
Dir
20/11:41pm 27.0 ESE 12 17 1012.2 - 0.0 - Partly cloudy 10 - - - -
20/11:30pm 27.1 ESE 14 17 1012.2 - 0.0 - Partly cloudy 5 - - - -
20/11:24pm 27.0 SE 14 17 1012.1 - 0.0 - Partly cloudy 5 - - - -
20/11:00pm 27.0 SE 14 18 1012.0 - 0.0 - Cloudy 10 - - - -
20/10:30pm 27.0 SE 14 19 1012.1 - 0.0 - Partly cloudy 10 - - - -
20/10:00pm 27.1 SE 15 19 1011.9 - 0.0 - Partly cloudy 10 - - - -
20/09:30pm 27.2 SE 15 19 1011.6 - 0.0 - Partly cloudy 10 - - - -
20/09:00pm 26.8 ESE 12 17 1011.5 - 0.0 - Partly cloudy 10 - - - -
20/08:30pm 27.1 SE 12 16 1011.2 - 0.0 - Partly cloudy 10 - - - -
20/08:00pm 27.2 SE 13 16 1010.9 - 0.0 - Cloudy 10 - - - -
20/07:30pm 26.9 ESE 14 18 1010.8 - 0.0 - Partly cloudy 10 - - - -
20/07:00pm 26.5 SSE 13 18 1010.6 - 0.0 - Partly cloudy 10 - - - -
20/06:30pm 27.4 SSE 11 16 1010.3 - 0.0 - Partly cloudy 10 - - - -
20/06:00pm 28.1 SE 13 17 1010.1 - 0.0 - Partly cloudy 10 - - - -
20/05:30pm 27.6 SE 13 16 1010.0 - 0.0 - Partly cloudy 10 - - - -

Other Formats:

Comma delimited format used in spreadsheet applications
http://www.bom.gov.au/fwo/IDW60701/IDW60701.96996.axf

JavaScript Object Notation format (JSON) in row-major order
http://www.bom.gov.au/fwo/IDW60701/IDW60701.96996.json